sensor_id;sensor_type;location;lat;lon;timestamp;temperature;humidity
11836;DHT22;5977;51.972;7.640;2022-12-13T00:01:28;15.10;75.70
11836;DHT22;5977;51.972;7.640;2022-12-13T00:03:58;15.10;75.70
11836;DHT22;5977;51.972;7.640;2022-12-13T00:06:28;15.10;75.70
11836;DHT22;5977;51.972;7.640;2022-12-13T00:08:57;15.10;75.60
11836;DHT22;5977;51.972;7.640;2022-12-13T00:11:25;15.10;75.70
11836;DHT22;5977;51.972;7.640;2022-12-13T00:13:53;15.10;75.70
11836;DHT22;5977;51.972;7.640;2022-12-13T00:16:23;15.10;75.70
11836;DHT22;5977;51.972;7.640;2022-12-13T00:18:53;15.10;75.70
11836;DHT22;5977;51.972;7.640;2022-12-13T00:21:23;15.10;75.70
11836;DHT22;5977;51.972;7.640;2022-12-13T00:23:53;15.10;75.70
11836;DHT22;5977;51.972;7.640;2022-12-13T00:26:23;15.20;75.80
11836;DHT22;5977;51.972;7.640;2022-12-13T00:28:51;15.10;75.90
11836;DHT22;5977;51.972;7.640;2022-12-13T00:31:22;15.10;75.90
11836;DHT22;5977;51.972;7.640;2022-12-13T00:34:11;15.10;75.80
11836;DHT22;5977;51.972;7.640;2022-12-13T00:36:39;15.10;75.90
11836;DHT22;5977;51.972;7.640;2022-12-13T00:39:08;15.10;76.00
11836;DHT22;5977;51.972;7.640;2022-12-13T00:41:39;15.10;75.90
11836;DHT22;5977;51.972;7.640;2022-12-13T00:44:08;15.10;76.00
11836;DHT22;5977;51.972;7.640;2022-12-13T00:46:36;15.10;75.90
11836;DHT22;5977;51.972;7.640;2022-12-13T00:49:04;15.10;75.90
11836;DHT22;5977;51.972;7.640;2022-12-13T00:51:33;15.10;75.90
11836;DHT22;5977;51.972;7.640;2022-12-13T00:54:01;15.10;75.90
11836;DHT22;5977;51.972;7.640;2022-12-13T00:56:32;15.10;75.90
11836;DHT22;5977;51.972;7.640;2022-12-13T00:59:00;15.10;75.90
11836;DHT22;5977;51.972;7.640;2022-12-13T01:01:29;15.10;76.00
11836;DHT22;5977;51.972;7.640;2022-12-13T01:03:59;15.10;75.90
11836;DHT22;5977;51.972;7.640;2022-12-13T01:06:32;15.00;75.90
11836;DHT22;5977;51.972;7.640;2022-12-13T01:09:00;15.10;75.90
11836;DHT22;5977;51.972;7.640;2022-12-13T01:11:28;15.00;75.90
11836;DHT22;5977;51.972;7.640;2022-12-13T01:13:57;15.10;75.90
11836;DHT22;5977;51.972;7.640;2022-12-13T01:16:25;15.00;75.80
11836;DHT22;5977;51.972;7.640;2022-12-13T01:18:55;15.00;75.90
11836;DHT22;5977;51.972;7.640;2022-12-13T01:21:23;15.10;75.90
11836;DHT22;5977;51.972;7.640;2022-12-13T01:23:51;15.10;76.00
11836;DHT22;5977;51.972;7.640;2022-12-13T01:26:20;15.10;76.00
11836;DHT22;5977;51.972;7.640;2022-12-13T01:28:48;15.10;75.90
11836;DHT22;5977;51.972;7.640;2022-12-13T01:31:18;15.10;76.00
11836;DHT22;5977;51.972;7.640;2022-12-13T01:33:47;15.00;75.80
11836;DHT22;5977;51.972;7.640;2022-12-13T01:36:17;15.10;76.10
11836;DHT22;5977;51.972;7.640;2022-12-13T01:38:53;15.00;75.90
11836;DHT22;5977;51.972;7.640;2022-12-13T01:41:25;15.10;76.10
11836;DHT22;5977;51.972;7.640;2022-12-13T01:43:57;15.10;76.10
11836;DHT22;5977;51.972;7.640;2022-12-13T01:46:29;15.00;76.00
11836;DHT22;5977;51.972;7.640;2022-12-13T01:49:01;15.10;76.00
11836;DHT22;5977;51.972;7.640;2022-12-13T01:51:48;15.10;76.00
11836;DHT22;5977;51.972;7.640;2022-12-13T01:54:21;15.10;76.20
11836;DHT22;5977;51.972;7.640;2022-12-13T01:57:01;15.10;76.20
11836;DHT22;5977;51.972;7.640;2022-12-13T01:59:30;15.00;76.30
11836;DHT22;5977;51.972;7.640;2022-12-13T02:02:00;15.10;76.40
11836;DHT22;5977;51.972;7.640;2022-12-13T02:04:30;15.00;76.40
11836;DHT22;5977;51.972;7.640;2022-12-13T02:07:11;15.10;76.50
11836;DHT22;5977;51.972;7.640;2022-12-13T02:09:50;15.00;76.50
11836;DHT22;5977;51.972;7.640;2022-12-13T02:12:23;15.00;76.60
11836;DHT22;5977;51.972;7.640;2022-12-13T02:14:57;15.10;76.70
11836;DHT22;5977;51.972;7.640;2022-12-13T02:17:34;15.10;76.70
11836;DHT22;5977;51.972;7.640;2022-12-13T02:26:40;15.00;76.50
11836;DHT22;5977;51.972;7.640;2022-12-13T02:32:15;15.00;76.60
11836;DHT22;5977;51.972;7.640;2022-12-13T02:34:46;15.00;76.60
11836;DHT22;5977;51.972;7.640;2022-12-13T02:37:21;15.00;76.80
11836;DHT22;5977;51.972;7.640;2022-12-13T02:39:55;15.00;76.70
11836;DHT22;5977;51.972;7.640;2022-12-13T02:42:26;15.10;76.90
11836;DHT22;5977;51.972;7.640;2022-12-13T02:44:57;15.00;76.80
11836;DHT22;5977;51.972;7.640;2022-12-13T02:47:31;15.10;77.00
11836;DHT22;5977;51.972;7.640;2022-12-13T02:50:03;15.00;76.90
11836;DHT22;5977;51.972;7.640;2022-12-13T02:52:33;15.00;77.00
11836;DHT22;5977;51.972;7.640;2022-12-13T02:55:05;15.00;77.10
11836;DHT22;5977;51.972;7.640;2022-12-13T02:57:35;15.00;77.00
11836;DHT22;5977;51.972;7.640;2022-12-13T03:00:05;15.00;77.10
11836;DHT22;5977;51.972;7.640;2022-12-13T03:02:43;15.00;77.20
11836;DHT22;5977;51.972;7.640;2022-12-13T03:05:19;15.00;77.10
11836;DHT22;5977;51.972;7.640;2022-12-13T03:08:17;15.00;77.20
11836;DHT22;5977;51.972;7.640;2022-12-13T03:10:52;15.00;77.00
11836;DHT22;5977;51.972;7.640;2022-12-13T03:13:27;15.00;77.10
11836;DHT22;5977;51.972;7.640;2022-12-13T03:16:09;15.00;77.30
11836;DHT22;5977;51.972;7.640;2022-12-13T03:18:40;15.10;77.20
11836;DHT22;5977;51.972;7.640;2022-12-13T03:21:09;15.00;77.10
11836;DHT22;5977;51.972;7.640;2022-12-13T03:23:38;15.10;77.30
11836;DHT22;5977;51.972;7.640;2022-12-13T03:26:09;15.00;77.50
11836;DHT22;5977;51.972;7.640;2022-12-13T03:28:38;15.00;77.30
11836;DHT22;5977;51.972;7.640;2022-12-13T03:31:06;15.00;77.50
11836;DHT22;5977;51.972;7.640;2022-12-13T03:33:34;15.00;77.60
11836;DHT22;5977;51.972;7.640;2022-12-13T03:36:06;15.00;77.50
11836;DHT22;5977;51.972;7.640;2022-12-13T03:38:35;15.00;77.60
11836;DHT22;5977;51.972;7.640;2022-12-13T03:41:06;15.00;77.60
11836;DHT22;5977;51.972;7.640;2022-12-13T03:43:36;15.00;77.60
11836;DHT22;5977;51.972;7.640;2022-12-13T03:46:05;15.00;77.60
11836;DHT22;5977;51.972;7.640;2022-12-13T03:48:33;14.90;77.20
11836;DHT22;5977;51.972;7.640;2022-12-13T03:51:02;14.90;75.80
11836;DHT22;5977;51.972;7.640;2022-12-13T03:53:32;14.70;74.30
11836;DHT22;5977;51.972;7.640;2022-12-13T03:56:01;14.70;73.20
11836;DHT22;5977;51.972;7.640;2022-12-13T03:58:30;14.60;72.60
11836;DHT22;5977;51.972;7.640;2022-12-13T04:01:04;14.60;71.50
11836;DHT22;5977;51.972;7.640;2022-12-13T04:03:33;14.50;70.10
11836;DHT22;5977;51.972;7.640;2022-12-13T04:06:00;14.40;69.40
11836;DHT22;5977;51.972;7.640;2022-12-13T04:08:28;14.40;68.80
11836;DHT22;5977;51.972;7.640;2022-12-13T04:10:58;14.40;68.20
11836;DHT22;5977;51.972;7.640;2022-12-13T04:13:25;14.40;67.70
11836;DHT22;5977;51.972;7.640;2022-12-13T04:15:59;14.30;67.30
11836;DHT22;5977;51.972;7.640;2022-12-13T04:18:27;14.30;66.80
11836;DHT22;5977;51.972;7.640;2022-12-13T04:20:55;14.30;66.40
11836;DHT22;5977;51.972;7.640;2022-12-13T04:23:23;14.30;66.20
11836;DHT22;5977;51.972;7.640;2022-12-13T04:25:51;14.30;65.80
11836;DHT22;5977;51.972;7.640;2022-12-13T04:28:20;14.20;65.50
11836;DHT22;5977;51.972;7.640;2022-12-13T04:30:49;14.20;65.20
11836;DHT22;5977;51.972;7.640;2022-12-13T04:33:20;14.20;64.90
11836;DHT22;5977;51.972;7.640;2022-12-13T04:35:48;14.20;64.60
11836;DHT22;5977;51.972;7.640;2022-12-13T04:38:16;14.20;64.40
11836;DHT22;5977;51.972;7.640;2022-12-13T04:40:44;14.20;64.20
11836;DHT22;5977;51.972;7.640;2022-12-13T04:43:12;14.10;63.90
11836;DHT22;5977;51.972;7.640;2022-12-13T04:45:41;14.10;63.80
11836;DHT22;5977;51.972;7.640;2022-12-13T04:48:09;14.10;63.40
11836;DHT22;5977;51.972;7.640;2022-12-13T04:50:37;14.00;63.30
11836;DHT22;5977;51.972;7.640;2022-12-13T04:53:05;14.10;62.60
11836;DHT22;5977;51.972;7.640;2022-12-13T04:55:33;14.20;61.90
11836;DHT22;5977;51.972;7.640;2022-12-13T04:58:01;14.40;61.80
11836;DHT22;5977;51.972;7.640;2022-12-13T05:00:28;14.40;61.80
11836;DHT22;5977;51.972;7.640;2022-12-13T05:02:58;14.50;62.10
11836;DHT22;5977;51.972;7.640;2022-12-13T05:05:25;14.50;62.10
11836;DHT22;5977;51.972;7.640;2022-12-13T05:07:54;14.50;62.30
11836;DHT22;5977;51.972;7.640;2022-12-13T05:10:22;14.60;62.80
11836;DHT22;5977;51.972;7.640;2022-12-13T05:13:03;14.60;62.80
11836;DHT22;5977;51.972;7.640;2022-12-13T05:15:32;14.70;62.90
11836;DHT22;5977;51.972;7.640;2022-12-13T05:18:02;14.70;63.20
11836;DHT22;5977;51.972;7.640;2022-12-13T05:20:37;14.80;63.40
11836;DHT22;5977;51.972;7.640;2022-12-13T05:23:04;14.70;63.70
11836;DHT22;5977;51.972;7.640;2022-12-13T05:25:33;14.70;64.00
11836;DHT22;5977;51.972;7.640;2022-12-13T05:28:02;14.70;64.20
11836;DHT22;5977;51.972;7.640;2022-12-13T05:30:50;14.80;64.60
11836;DHT22;5977;51.972;7.640;2022-12-13T05:33:21;14.80;64.80
11836;DHT22;5977;51.972;7.640;2022-12-13T05:35:49;14.80;64.90
11836;DHT22;5977;51.972;7.640;2022-12-13T05:38:25;14.80;65.20
11836;DHT22;5977;51.972;7.640;2022-12-13T05:40:52;14.80;65.40
11836;DHT22;5977;51.972;7.640;2022-12-13T05:43:20;14.80;65.70
11836;DHT22;5977;51.972;7.640;2022-12-13T05:46:08;14.80;65.70
11836;DHT22;5977;51.972;7.640;2022-12-13T05:48:37;14.80;65.80
11836;DHT22;5977;51.972;7.640;2022-12-13T05:51:05;14.90;65.90
11836;DHT22;5977;51.972;7.640;2022-12-13T05:53:38;14.80;66.10
11836;DHT22;5977;51.972;7.640;2022-12-13T05:56:07;14.80;66.20
11836;DHT22;5977;51.972;7.640;2022-12-13T05:58:36;14.80;66.30
11836;DHT22;5977;51.972;7.640;2022-12-13T06:01:06;14.80;66.50
11836;DHT22;5977;51.972;7.640;2022-12-13T06:03:34;14.90;66.70
11836;DHT22;5977;51.972;7.640;2022-12-13T06:06:05;14.90;66.80
11836;DHT22;5977;51.972;7.640;2022-12-13T06:08:33;14.90;66.80
11836;DHT22;5977;51.972;7.640;2022-12-13T06:11:02;14.90;67.20
11836;DHT22;5977;51.972;7.640;2022-12-13T06:13:38;14.80;67.40
11836;DHT22;5977;51.972;7.640;2022-12-13T06:16:09;14.90;67.60
11836;DHT22;5977;51.972;7.640;2022-12-13T06:18:50;14.90;67.60
11836;DHT22;5977;51.972;7.640;2022-12-13T06:21:30;14.90;67.90
11836;DHT22;5977;51.972;7.640;2022-12-13T06:24:12;14.90;68.00
11836;DHT22;5977;51.972;7.640;2022-12-13T06:26:40;14.90;68.20
11836;DHT22;5977;51.972;7.640;2022-12-13T06:29:07;14.90;68.30
11836;DHT22;5977;51.972;7.640;2022-12-13T06:31:36;14.80;68.40
11836;DHT22;5977;51.972;7.640;2022-12-13T06:34:04;14.90;68.60
11836;DHT22;5977;51.972;7.640;2022-12-13T06:36:42;14.90;68.70
11836;DHT22;5977;51.972;7.640;2022-12-13T06:39:10;14.90;68.50
11836;DHT22;5977;51.972;7.640;2022-12-13T06:41:38;14.90;68.70
11836;DHT22;5977;51.972;7.640;2022-12-13T06:44:05;14.90;68.70
11836;DHT22;5977;51.972;7.640;2022-12-13T06:46:33;14.90;68.70
11836;DHT22;5977;51.972;7.640;2022-12-13T06:49:06;14.90;68.70
11836;DHT22;5977;51.972;7.640;2022-12-13T06:51:34;14.80;68.60
11836;DHT22;5977;51.972;7.640;2022-12-13T06:54:03;14.90;68.70
11836;DHT22;5977;51.972;7.640;2022-12-13T06:56:31;14.80;68.60
11836;DHT22;5977;51.972;7.640;2022-12-13T06:58:59;14.90;68.70
11836;DHT22;5977;51.972;7.640;2022-12-13T07:01:28;14.90;68.70
11836;DHT22;5977;51.972;7.640;2022-12-13T07:04:03;14.80;68.60
11836;DHT22;5977;51.972;7.640;2022-12-13T07:06:51;14.90;68.80
11836;DHT22;5977;51.972;7.640;2022-12-13T07:09:20;14.90;68.80
11836;DHT22;5977;51.972;7.640;2022-12-13T07:11:48;14.90;68.70
11836;DHT22;5977;51.972;7.640;2022-12-13T07:14:18;14.90;68.90
11836;DHT22;5977;51.972;7.640;2022-12-13T07:16:46;14.80;69.10
11836;DHT22;5977;51.972;7.640;2022-12-13T07:19:14;14.80;69.20
11836;DHT22;5977;51.972;7.640;2022-12-13T07:21:50;14.80;69.20
11836;DHT22;5977;51.972;7.640;2022-12-13T07:24:18;14.90;69.40
11836;DHT22;5977;51.972;7.640;2022-12-13T07:26:47;14.80;69.30
11836;DHT22;5977;51.972;7.640;2022-12-13T07:29:15;14.80;69.20
11836;DHT22;5977;51.972;7.640;2022-12-13T07:31:48;14.80;69.40
11836;DHT22;5977;51.972;7.640;2022-12-13T07:34:16;14.90;69.40
11836;DHT22;5977;51.972;7.640;2022-12-13T07:36:44;14.90;69.40
11836;DHT22;5977;51.972;7.640;2022-12-13T07:39:12;14.80;69.50
11836;DHT22;5977;51.972;7.640;2022-12-13T07:41:40;14.90;69.50
11836;DHT22;5977;51.972;7.640;2022-12-13T07:44:09;14.90;69.60
11836;DHT22;5977;51.972;7.640;2022-12-13T07:46:37;14.80;69.60
11836;DHT22;5977;51.972;7.640;2022-12-13T07:49:05;14.80;69.70
11836;DHT22;5977;51.972;7.640;2022-12-13T07:51:34;14.80;69.80
11836;DHT22;5977;51.972;7.640;2022-12-13T07:54:04;14.90;69.80
11836;DHT22;5977;51.972;7.640;2022-12-13T07:56:34;14.90;69.80
11836;DHT22;5977;51.972;7.640;2022-12-13T07:59:02;14.90;69.90
11836;DHT22;5977;51.972;7.640;2022-12-13T08:01:32;14.80;69.90
11836;DHT22;5977;51.972;7.640;2022-12-13T08:04:01;14.90;69.90
11836;DHT22;5977;51.972;7.640;2022-12-13T08:06:31;14.80;69.90
11836;DHT22;5977;51.972;7.640;2022-12-13T08:09:00;14.80;69.80
11836;DHT22;5977;51.972;7.640;2022-12-13T08:11:28;14.90;70.00
11836;DHT22;5977;51.972;7.640;2022-12-13T08:13:57;14.90;70.10
11836;DHT22;5977;51.972;7.640;2022-12-13T08:16:25;14.90;70.30
11836;DHT22;5977;51.972;7.640;2022-12-13T08:18:57;14.90;70.70
11836;DHT22;5977;51.972;7.640;2022-12-13T08:21:32;15.00;71.50
11836;DHT22;5977;51.972;7.640;2022-12-13T08:24:21;15.00;70.80
11836;DHT22;5977;51.972;7.640;2022-12-13T08:26:50;15.00;71.10
11836;DHT22;5977;51.972;7.640;2022-12-13T08:29:18;15.00;71.20
11836;DHT22;5977;51.972;7.640;2022-12-13T08:31:58;15.00;71.30
11836;DHT22;5977;51.972;7.640;2022-12-13T08:34:28;15.10;71.50
11836;DHT22;5977;51.972;7.640;2022-12-13T08:36:57;15.10;71.50
11836;DHT22;5977;51.972;7.640;2022-12-13T08:39:30;15.10;71.50
11836;DHT22;5977;51.972;7.640;2022-12-13T08:42:02;15.30;71.10
11836;DHT22;5977;51.972;7.640;2022-12-13T08:44:44;15.40;71.00
11836;DHT22;5977;51.972;7.640;2022-12-13T08:47:12;15.60;71.60
11836;DHT22;5977;51.972;7.640;2022-12-13T08:49:53;15.70;71.50
11836;DHT22;5977;51.972;7.640;2022-12-13T08:52:28;15.80;71.60
11836;DHT22;5977;51.972;7.640;2022-12-13T08:54:56;15.80;71.60
11836;DHT22;5977;51.972;7.640;2022-12-13T08:57:24;15.80;70.90
11836;DHT22;5977;51.972;7.640;2022-12-13T08:59:52;15.90;71.80
11836;DHT22;5977;51.972;7.640;2022-12-13T09:02:20;15.90;71.90
11836;DHT22;5977;51.972;7.640;2022-12-13T09:04:48;15.90;71.90
11836;DHT22;5977;51.972;7.640;2022-12-13T09:07:17;16.00;72.20
11836;DHT22;5977;51.972;7.640;2022-12-13T09:09:45;16.00;72.00
11836;DHT22;5977;51.972;7.640;2022-12-13T09:12:21;16.00;72.20
11836;DHT22;5977;51.972;7.640;2022-12-13T09:14:57;16.10;72.00
11836;DHT22;5977;51.972;7.640;2022-12-13T09:17:29;16.10;71.90
11836;DHT22;5977;51.972;7.640;2022-12-13T09:20:05;16.10;71.90
11836;DHT22;5977;51.972;7.640;2022-12-13T09:22:56;16.00;71.90
11836;DHT22;5977;51.972;7.640;2022-12-13T09:25:28;15.90;72.80
11836;DHT22;5977;51.972;7.640;2022-12-13T09:28:04;15.90;72.30
11836;DHT22;5977;51.972;7.640;2022-12-13T09:30:33;16.00;72.30
11836;DHT22;5977;51.972;7.640;2022-12-13T09:33:01;15.90;72.30
11836;DHT22;5977;51.972;7.640;2022-12-13T09:35:49;16.00;72.60
11836;DHT22;5977;51.972;7.640;2022-12-13T09:38:19;15.90;72.80
11836;DHT22;5977;51.972;7.640;2022-12-13T09:40:49;15.90;73.30
11836;DHT22;5977;51.972;7.640;2022-12-13T09:43:27;16.00;73.70
11836;DHT22;5977;51.972;7.640;2022-12-13T09:46:00;15.90;74.00
11836;DHT22;5977;51.972;7.640;2022-12-13T09:48:39;15.80;74.20
11836;DHT22;5977;51.972;7.640;2022-12-13T09:51:14;15.90;74.20
11836;DHT22;5977;51.972;7.640;2022-12-13T09:53:58;15.80;74.40
11836;DHT22;5977;51.972;7.640;2022-12-13T09:56:27;15.80;74.30
11836;DHT22;5977;51.972;7.640;2022-12-13T09:58:55;15.80;74.20
11836;DHT22;5977;51.972;7.640;2022-12-13T10:01:24;15.80;74.00
11836;DHT22;5977;51.972;7.640;2022-12-13T10:03:53;15.70;73.90
11836;DHT22;5977;51.972;7.640;2022-12-13T10:06:23;15.70;73.80
11836;DHT22;5977;51.972;7.640;2022-12-13T10:08:57;15.70;73.80
11836;DHT22;5977;51.972;7.640;2022-12-13T10:11:27;15.60;73.60
11836;DHT22;5977;51.972;7.640;2022-12-13T10:14:02;15.60;73.50
11836;DHT22;5977;51.972;7.640;2022-12-13T10:16:41;15.60;73.50
11836;DHT22;5977;51.972;7.640;2022-12-13T10:19:16;15.60;73.30
11836;DHT22;5977;51.972;7.640;2022-12-13T10:21:54;15.60;73.30
11836;DHT22;5977;51.972;7.640;2022-12-13T10:24:47;15.60;73.40
11836;DHT22;5977;51.972;7.640;2022-12-13T10:27:17;15.60;72.90
11836;DHT22;5977;51.972;7.640;2022-12-13T10:29:56;15.60;73.00
11836;DHT22;5977;51.972;7.640;2022-12-13T10:32:25;15.60;72.70
11836;DHT22;5977;51.972;7.640;2022-12-13T10:34:53;15.60;72.90
11836;DHT22;5977;51.972;7.640;2022-12-13T10:37:29;15.60;72.80
11836;DHT22;5977;51.972;7.640;2022-12-13T10:39:58;15.60;72.40
11836;DHT22;5977;51.972;7.640;2022-12-13T10:42:26;15.60;72.70
11836;DHT22;5977;51.972;7.640;2022-12-13T10:45:14;15.60;72.60
11836;DHT22;5977;51.972;7.640;2022-12-13T10:47:49;15.60;72.20
11836;DHT22;5977;51.972;7.640;2022-12-13T10:50:23;15.60;72.40
11836;DHT22;5977;51.972;7.640;2022-12-13T10:52:51;15.60;72.20
11836;DHT22;5977;51.972;7.640;2022-12-13T10:55:28;15.60;72.50
11836;DHT22;5977;51.972;7.640;2022-12-13T10:57:59;15.60;72.30
11836;DHT22;5977;51.972;7.640;2022-12-13T11:00:35;15.60;72.60
11836;DHT22;5977;51.972;7.640;2022-12-13T11:03:03;15.60;72.50
11836;DHT22;5977;51.972;7.640;2022-12-13T11:05:33;15.50;72.60
11836;DHT22;5977;51.972;7.640;2022-12-13T11:08:17;15.50;72.60
11836;DHT22;5977;51.972;7.640;2022-12-13T11:10:55;15.60;72.50
11836;DHT22;5977;51.972;7.640;2022-12-13T11:13:30;15.50;72.60
11836;DHT22;5977;51.972;7.640;2022-12-13T11:16:00;15.50;72.70
11836;DHT22;5977;51.972;7.640;2022-12-13T11:18:34;15.50;72.90
11836;DHT22;5977;51.972;7.640;2022-12-13T11:21:03;15.50;72.80
11836;DHT22;5977;51.972;7.640;2022-12-13T11:23:36;15.40;72.70
11836;DHT22;5977;51.972;7.640;2022-12-13T11:26:08;15.50;72.60
11836;DHT22;5977;51.972;7.640;2022-12-13T11:28:52;15.50;72.50
11836;DHT22;5977;51.972;7.640;2022-12-13T11:31:27;15.50;72.50
11836;DHT22;5977;51.972;7.640;2022-12-13T11:33:59;15.50;72.50
11836;DHT22;5977;51.972;7.640;2022-12-13T11:36:35;15.50;72.90
11836;DHT22;5977;51.972;7.640;2022-12-13T11:39:13;15.50;74.00
11836;DHT22;5977;51.972;7.640;2022-12-13T11:41:49;15.40;73.90
11836;DHT22;5977;51.972;7.640;2022-12-13T11:44:28;15.30;74.00
11836;DHT22;5977;51.972;7.640;2022-12-13T11:47:01;15.40;74.10
11836;DHT22;5977;51.972;7.640;2022-12-13T11:49:37;15.40;74.20
11836;DHT22;5977;51.972;7.640;2022-12-13T11:52:11;15.40;74.00
11836;DHT22;5977;51.972;7.640;2022-12-13T11:54:47;15.40;74.00
11836;DHT22;5977;51.972;7.640;2022-12-13T11:57:29;15.30;73.80
11836;DHT22;5977;51.972;7.640;2022-12-13T12:00:03;15.40;73.90
11836;DHT22;5977;51.972;7.640;2022-12-13T12:02:43;15.40;73.90
11836;DHT22;5977;51.972;7.640;2022-12-13T12:05:23;15.40;74.00
11836;DHT22;5977;51.972;7.640;2022-12-13T12:07:56;15.40;73.80
11836;DHT22;5977;51.972;7.640;2022-12-13T12:10:46;15.50;74.30
11836;DHT22;5977;51.972;7.640;2022-12-13T12:13:20;15.50;74.70
11836;DHT22;5977;51.972;7.640;2022-12-13T12:15:56;15.50;74.80
11836;DHT22;5977;51.972;7.640;2022-12-13T12:18:27;15.50;74.90
11836;DHT22;5977;51.972;7.640;2022-12-13T12:21:04;15.50;75.20
11836;DHT22;5977;51.972;7.640;2022-12-13T12:23:44;15.50;75.10
11836;DHT22;5977;51.972;7.640;2022-12-13T12:26:23;15.50;75.40
11836;DHT22;5977;51.972;7.640;2022-12-13T12:29:12;15.50;75.90
11836;DHT22;5977;51.972;7.640;2022-12-13T12:31:49;15.40;75.90
11836;DHT22;5977;51.972;7.640;2022-12-13T12:34:27;15.40;76.20
11836;DHT22;5977;51.972;7.640;2022-12-13T12:37:07;15.40;76.20
11836;DHT22;5977;51.972;7.640;2022-12-13T12:39:51;15.40;76.10
11836;DHT22;5977;51.972;7.640;2022-12-13T12:42:35;15.40;76.00
11836;DHT22;5977;51.972;7.640;2022-12-13T12:45:37;15.40;75.90
11836;DHT22;5977;51.972;7.640;2022-12-13T12:48:45;15.30;75.90
11836;DHT22;5977;51.972;7.640;2022-12-13T12:51:32;15.30;75.80
11836;DHT22;5977;51.972;7.640;2022-12-13T12:54:15;15.30;76.00
11836;DHT22;5977;51.972;7.640;2022-12-13T12:56:49;15.30;75.90
11836;DHT22;5977;51.972;7.640;2022-12-13T12:59:26;15.30;75.90
11836;DHT22;5977;51.972;7.640;2022-12-13T13:02:03;15.30;75.90
11836;DHT22;5977;51.972;7.640;2022-12-13T13:04:36;15.30;75.90
11836;DHT22;5977;51.972;7.640;2022-12-13T13:07:11;15.40;76.10
11836;DHT22;5977;51.972;7.640;2022-12-13T13:09:50;15.40;76.00
11836;DHT22;5977;51.972;7.640;2022-12-13T13:12:20;15.40;76.10
11836;DHT22;5977;51.972;7.640;2022-12-13T13:14:56;15.40;76.20
11836;DHT22;5977;51.972;7.640;2022-12-13T13:17:45;15.30;76.20
11836;DHT22;5977;51.972;7.640;2022-12-13T13:20:21;15.40;75.90
11836;DHT22;5977;51.972;7.640;2022-12-13T13:22:51;15.30;76.00
11836;DHT22;5977;51.972;7.640;2022-12-13T13:25:39;15.40;76.30
11836;DHT22;5977;51.972;7.640;2022-12-13T13:28:27;15.40;76.30
11836;DHT22;5977;51.972;7.640;2022-12-13T13:31:01;15.30;76.40
11836;DHT22;5977;51.972;7.640;2022-12-13T13:33:44;15.30;76.20
11836;DHT22;5977;51.972;7.640;2022-12-13T13:39:34;15.20;76.10
11836;DHT22;5977;51.972;7.640;2022-12-13T13:42:18;15.30;76.40
11836;DHT22;5977;51.972;7.640;2022-12-13T13:57:31;15.40;76.50
11836;DHT22;5977;51.972;7.640;2022-12-13T14:00:37;15.40;76.60
11836;DHT22;5977;51.972;7.640;2022-12-13T14:09:46;15.30;77.60
11836;DHT22;5977;51.972;7.640;2022-12-13T14:15:56;15.30;77.30
11836;DHT22;5977;51.972;7.640;2022-12-13T14:18:56;15.30;77.50
11836;DHT22;5977;51.972;7.640;2022-12-13T14:21:48;15.30;77.70
11836;DHT22;5977;51.972;7.640;2022-12-13T14:24:26;15.30;77.90
11836;DHT22;5977;51.972;7.640;2022-12-13T14:27:05;15.20;78.10
11836;DHT22;5977;51.972;7.640;2022-12-13T14:29:38;15.20;78.10
11836;DHT22;5977;51.972;7.640;2022-12-13T14:32:27;15.20;78.20
11836;DHT22;5977;51.972;7.640;2022-12-13T14:34:56;15.20;78.20
11836;DHT22;5977;51.972;7.640;2022-12-13T14:37:54;15.20;78.30
11836;DHT22;5977;51.972;7.640;2022-12-13T14:40:26;15.20;78.00
11836;DHT22;5977;51.972;7.640;2022-12-13T14:42:55;15.20;78.20
11836;DHT22;5977;51.972;7.640;2022-12-13T14:45:24;15.20;78.40
11836;DHT22;5977;51.972;7.640;2022-12-13T14:47:56;15.20;78.10
11836;DHT22;5977;51.972;7.640;2022-12-13T14:50:26;15.20;78.00
11836;DHT22;5977;51.972;7.640;2022-12-13T14:52:55;15.20;78.10
11836;DHT22;5977;51.972;7.640;2022-12-13T14:55:27;15.10;78.00
11836;DHT22;5977;51.972;7.640;2022-12-13T14:57:59;15.10;77.90
11836;DHT22;5977;51.972;7.640;2022-12-13T15:00:31;15.10;77.90
11836;DHT22;5977;51.972;7.640;2022-12-13T15:03:02;15.10;77.80
11836;DHT22;5977;51.972;7.640;2022-12-13T15:05:32;15.10;77.80
11836;DHT22;5977;51.972;7.640;2022-12-13T15:08:01;15.10;77.80
11836;DHT22;5977;51.972;7.640;2022-12-13T15:10:39;15.10;77.90
11836;DHT22;5977;51.972;7.640;2022-12-13T15:13:24;15.10;77.80
11836;DHT22;5977;51.972;7.640;2022-12-13T15:15:58;15.10;77.70
11836;DHT22;5977;51.972;7.640;2022-12-13T15:18:39;15.10;77.80
11836;DHT22;5977;51.972;7.640;2022-12-13T15:21:20;15.10;77.80
11836;DHT22;5977;51.972;7.640;2022-12-13T15:23:52;15.10;77.70
11836;DHT22;5977;51.972;7.640;2022-12-13T15:26:25;15.10;77.90
11836;DHT22;5977;51.972;7.640;2022-12-13T15:28:57;15.10;78.00
11836;DHT22;5977;51.972;7.640;2022-12-13T15:31:26;15.10;77.90
11836;DHT22;5977;51.972;7.640;2022-12-13T15:34:22;15.10;78.00
11836;DHT22;5977;51.972;7.640;2022-12-13T15:36:57;15.10;77.60
11836;DHT22;5977;51.972;7.640;2022-12-13T15:39:27;15.10;78.00
11836;DHT22;5977;51.972;7.640;2022-12-13T15:41:56;15.10;78.00
11836;DHT22;5977;51.972;7.640;2022-12-13T15:44:27;15.10;78.00
11836;DHT22;5977;51.972;7.640;2022-12-13T15:47:00;15.10;77.90
11836;DHT22;5977;51.972;7.640;2022-12-13T15:49:34;15.10;77.80
11836;DHT22;5977;51.972;7.640;2022-12-13T15:52:06;15.10;77.80
11836;DHT22;5977;51.972;7.640;2022-12-13T15:54:55;15.10;77.90
11836;DHT22;5977;51.972;7.640;2022-12-13T15:57:25;15.20;77.80
11836;DHT22;5977;51.972;7.640;2022-12-13T16:00:06;15.10;77.90
11836;DHT22;5977;51.972;7.640;2022-12-13T16:02:48;15.10;78.30
11836;DHT22;5977;51.972;7.640;2022-12-13T16:05:24;15.10;77.70
11836;DHT22;5977;51.972;7.640;2022-12-13T16:07:53;15.10;77.60
11836;DHT22;5977;51.972;7.640;2022-12-13T16:10:22;15.10;77.70
11836;DHT22;5977;51.972;7.640;2022-12-13T16:12:52;15.20;77.90
11836;DHT22;5977;51.972;7.640;2022-12-13T16:15:28;15.10;77.70
11836;DHT22;5977;51.972;7.640;2022-12-13T16:18:05;15.20;77.70
11836;DHT22;5977;51.972;7.640;2022-12-13T16:20:36;15.10;77.50
11836;DHT22;5977;51.972;7.640;2022-12-13T16:23:04;15.10;77.70
11836;DHT22;5977;51.972;7.640;2022-12-13T16:25:35;15.20;77.90
11836;DHT22;5977;51.972;7.640;2022-12-13T16:28:03;15.20;77.90
11836;DHT22;5977;51.972;7.640;2022-12-13T16:30:51;15.20;77.90
11836;DHT22;5977;51.972;7.640;2022-12-13T16:37:33;15.10;77.40
11836;DHT22;5977;51.972;7.640;2022-12-13T16:40:29;15.10;77.60
11836;DHT22;5977;51.972;7.640;2022-12-13T16:43:00;15.00;77.30
11836;DHT22;5977;51.972;7.640;2022-12-13T16:45:30;15.00;77.40
11836;DHT22;5977;51.972;7.640;2022-12-13T16:48:09;15.00;77.50
11836;DHT22;5977;51.972;7.640;2022-12-13T16:50:40;15.00;77.50
11836;DHT22;5977;51.972;7.640;2022-12-13T16:53:10;15.10;77.40
11836;DHT22;5977;51.972;7.640;2022-12-13T16:55:43;15.10;77.40
11836;DHT22;5977;51.972;7.640;2022-12-13T16:58:24;15.00;77.40
11836;DHT22;5977;51.972;7.640;2022-12-13T17:00:52;15.00;77.50
11836;DHT22;5977;51.972;7.640;2022-12-13T17:03:25;15.00;77.50